createdAt,value
2023-02-11T00:04:44.598Z,-0.39
2023-02-11T00:09:45.813Z,-0.52
2023-02-11T00:14:55.993Z,-0.71
2023-02-11T00:19:57.360Z,-0.70
2023-02-11T00:24:58.600Z,-0.82
2023-02-11T00:30:02.256Z,-0.74
2023-02-11T00:35:03.534Z,-0.73
2023-02-11T00:40:06.741Z,-0.85
2023-02-11T00:45:09.757Z,-0.95
2023-02-11T00:50:11.143Z,-1.01
2023-02-11T00:55:12.391Z,-0.98
2023-02-11T01:00:13.612Z,-0.97
2023-02-11T01:05:14.967Z,-1.01
2023-02-11T01:10:16.238Z,-0.88
2023-02-11T01:15:17.506Z,-1.01
2023-02-11T01:20:18.844Z,-1.12
2023-02-11T01:25:20.058Z,-1.14
2023-02-11T01:30:21.261Z,-1.32
2023-02-11T01:35:22.481Z,-1.41
2023-02-11T01:40:23.718Z,-1.49
2023-02-11T01:45:24.947Z,-1.24
2023-02-11T01:50:26.183Z,-1.22
2023-02-11T01:55:46.309Z,-1.41
2023-02-11T02:00:49.092Z,-1.59
2023-02-11T02:05:50.747Z,-1.41
2023-02-11T02:10:54.710Z,-1.47
2023-02-11T02:15:56.017Z,-1.38
2023-02-11T02:20:57.293Z,-1.40
2023-02-11T02:25:58.568Z,-1.34
2023-02-11T02:30:59.886Z,-1.33
2023-02-11T02:36:01.185Z,-1.34
2023-02-11T02:41:02.405Z,-1.28
2023-02-11T02:46:03.672Z,-1.16
2023-02-11T02:51:04.937Z,-1.17
2023-02-11T02:56:06.211Z,-1.26
2023-02-11T03:01:09.556Z,-1.26
2023-02-11T03:06:10.910Z,-1.21
2023-02-11T03:11:12.214Z,-1.08
2023-02-11T03:16:13.639Z,-1.23
2023-02-11T03:21:14.949Z,-1.41
2023-02-11T03:26:16.194Z,-1.56
2023-02-11T03:31:17.498Z,-1.47
2023-02-11T03:36:18.843Z,-1.24
2023-02-11T03:41:20.053Z,-1.32
2023-02-11T03:46:21.402Z,-1.30
2023-02-11T03:51:22.776Z,-1.30
2023-02-11T03:56:24.022Z,-1.42
2023-02-11T04:01:25.240Z,-1.17
2023-02-11T04:06:26.554Z,-1.15
2023-02-11T04:11:27.853Z,-1.09
2023-02-11T04:16:30.888Z,-1.08
2023-02-11T04:21:32.189Z,-0.95
2023-02-11T04:26:33.399Z,-0.81
2023-02-11T04:31:34.623Z,-0.85
2023-02-11T04:36:35.912Z,-0.86
2023-02-11T04:41:37.271Z,-1.12
2023-02-11T04:46:38.538Z,-0.85
2023-02-11T04:51:39.772Z,-0.80
2023-02-11T04:56:40.989Z,-0.61
2023-02-11T05:01:42.263Z,-0.60
2023-02-11T05:06:43.511Z,-0.57
2023-02-11T05:11:44.782Z,-0.37
2023-02-11T05:16:46.049Z,-0.36
2023-02-11T05:22:01.441Z,-0.36
2023-02-11T05:27:03.658Z,-0.50
2023-02-11T05:32:04.984Z,-0.79
2023-02-11T05:37:06.219Z,-0.48
2023-02-11T05:42:07.424Z,-0.33
2023-02-11T05:47:09.017Z,-0.20
2023-02-11T05:52:10.206Z,-0.22
2023-02-11T05:57:11.414Z,-0.08
2023-02-11T06:02:12.715Z,0.06
2023-02-11T06:07:14.000Z,0.12
2023-02-11T06:12:15.198Z,0.16
2023-02-11T06:17:16.439Z,0.25
2023-02-11T06:22:17.703Z,0.08
2023-02-11T06:27:19.077Z,-0.03
2023-02-11T06:32:39.283Z,-0.04
2023-02-11T06:37:41.647Z,0.06
2023-02-11T06:42:42.966Z,-0.13
2023-02-11T06:47:44.212Z,-0.26
2023-02-11T06:52:45.413Z,-0.41
2023-02-11T06:57:46.624Z,-0.08
2023-02-11T07:02:47.920Z,-0.17
2023-02-11T07:07:49.332Z,-0.35
2023-02-11T07:12:50.586Z,0.01
2023-02-11T07:17:51.820Z,-0.09
2023-02-11T07:22:53.138Z,-0.34
2023-02-11T07:27:54.411Z,-0.14
2023-02-11T07:32:55.675Z,-0.14
2023-02-11T07:38:02.992Z,-0.21
2023-02-11T07:43:04.228Z,-0.11
2023-02-11T07:48:05.571Z,0.37
2023-02-11T07:53:06.950Z,0.50
2023-02-11T07:58:08.210Z,0.63
2023-02-11T08:03:09.466Z,0.90
2023-02-11T08:08:10.672Z,1.06
2023-02-11T08:13:15.010Z,1.14
2023-02-11T08:18:16.261Z,1.36
2023-02-11T08:23:17.518Z,1.74
2023-02-11T08:28:18.930Z,1.61
2023-02-11T08:33:20.187Z,2.00
2023-02-11T08:38:21.660Z,2.25
2023-02-11T08:43:23.575Z,2.40
2023-02-11T08:48:24.827Z,2.76
2023-02-11T08:53:26.231Z,3.15
2023-02-11T08:58:27.457Z,3.21
2023-02-11T09:03:29.696Z,2.94
2023-02-11T09:08:30.909Z,3.15
2023-02-11T09:13:32.200Z,3.18
2023-02-11T09:18:33.636Z,3.28
2023-02-11T09:23:35.065Z,3.10
2023-02-11T09:28:36.388Z,3.09
2023-02-11T09:33:37.737Z,3.47
2023-02-11T09:38:38.996Z,4.21
2023-02-11T09:43:40.213Z,4.22
2023-02-11T09:48:41.843Z,4.35
2023-02-11T09:53:43.049Z,3.65
2023-02-11T09:58:44.318Z,3.06
2023-02-11T10:03:45.630Z,3.36
2023-02-11T10:08:46.872Z,3.64
2023-02-11T10:13:48.140Z,3.61
2023-02-11T10:18:49.367Z,3.70
2023-02-11T10:23:51.647Z,3.92
2023-02-11T10:28:53.005Z,3.56
2023-02-11T10:33:54.722Z,3.33
2023-02-11T10:38:55.992Z,3.53
2023-02-11T10:43:57.265Z,3.53
2023-02-11T10:48:58.504Z,3.54
2023-02-11T10:53:59.743Z,3.59
2023-02-11T10:59:01.233Z,3.80
2023-02-11T11:04:02.740Z,3.81
2023-02-11T11:09:04.676Z,4.14
2023-02-11T11:14:06.028Z,3.89
2023-02-11T11:19:07.614Z,4.13
2023-02-11T11:24:09.655Z,4.18
2023-02-11T11:29:11.693Z,4.25
2023-02-11T11:34:12.937Z,4.38
2023-02-11T11:39:14.211Z,4.73
2023-02-11T11:44:15.524Z,4.97
2023-02-11T11:49:16.953Z,5.03
2023-02-11T11:54:20.604Z,5.20
2023-02-11T11:59:21.852Z,5.36
2023-02-11T12:04:23.047Z,5.44
2023-02-11T12:09:24.331Z,5.69
2023-02-11T12:14:25.878Z,6.07
2023-02-11T12:19:27.756Z,6.21
2023-02-11T12:24:29.672Z,6.54
2023-02-11T12:29:30.932Z,6.53
2023-02-11T12:34:32.297Z,7.19
2023-02-11T12:39:36.747Z,7.78
2023-02-11T12:44:38.224Z,7.79
2023-02-11T12:49:39.489Z,7.59
2023-02-11T12:54:40.797Z,7.65
2023-02-11T12:59:42.218Z,7.38
2023-02-11T13:04:43.641Z,7.58
2023-02-11T13:09:45.018Z,7.34
2023-02-11T13:14:46.300Z,7.19
2023-02-11T13:19:47.559Z,6.74
2023-02-11T13:24:49.361Z,6.42
2023-02-11T13:29:50.874Z,6.82
2023-02-11T13:34:52.106Z,6.93
2023-02-11T13:39:53.350Z,6.75
2023-02-11T13:44:54.605Z,6.62
2023-02-11T13:49:55.983Z,6.21
2023-02-11T13:54:57.291Z,6.10
2023-02-11T13:59:58.577Z,6.20
2023-02-11T14:05:18.616Z,6.01
2023-02-11T14:10:19.840Z,6.39
2023-02-11T14:15:21.130Z,6.58
2023-02-11T14:20:22.394Z,6.30
2023-02-11T14:25:23.734Z,6.69
2023-02-11T14:30:25.233Z,6.75
2023-02-11T14:35:26.435Z,6.36
2023-02-11T14:40:27.693Z,6.36
2023-02-11T14:45:29.028Z,6.44
2023-02-11T14:50:30.283Z,6.72
2023-02-11T14:55:31.584Z,6.84
2023-02-11T15:00:32.867Z,6.67
2023-02-11T15:05:34.139Z,6.65
2023-02-11T15:10:35.417Z,6.57
2023-02-11T15:15:37.756Z,6.33
2023-02-11T15:20:39.072Z,6.10
2023-02-11T15:25:40.325Z,6.35
2023-02-11T15:30:41.622Z,5.49
2023-02-11T15:35:42.901Z,6.11
2023-02-11T15:40:44.551Z,6.23
2023-02-11T15:45:46.042Z,6.11
2023-02-11T15:50:47.277Z,6.27
2023-02-11T15:55:49.059Z,6.07
2023-02-11T16:00:50.748Z,5.78
2023-02-11T16:05:52.271Z,5.77
2023-02-11T16:10:53.747Z,5.30
2023-02-11T16:15:55.145Z,5.05
2023-02-11T16:20:56.572Z,5.55
2023-02-11T16:25:58.296Z,5.82
2023-02-11T16:31:02.402Z,6.02
2023-02-11T16:36:03.824Z,5.96
2023-02-11T16:41:05.073Z,5.63
2023-02-11T16:46:06.366Z,5.67
2023-02-11T16:51:09.232Z,5.48
2023-02-11T16:56:10.511Z,5.51
2023-02-11T17:01:13.972Z,4.86
2023-02-11T17:06:15.566Z,4.48
2023-02-11T17:11:17.904Z,3.97
2023-02-11T17:16:19.376Z,4.35
2023-02-11T17:21:20.707Z,4.16
2023-02-11T17:26:21.987Z,4.31
2023-02-11T17:31:23.377Z,4.60
2023-02-11T17:36:24.627Z,4.18
2023-02-11T17:41:25.849Z,4.59
2023-02-11T17:46:28.570Z,4.84
2023-02-11T17:51:29.840Z,5.00
2023-02-11T17:56:31.116Z,5.07
2023-02-11T18:01:32.532Z,4.83
2023-02-11T18:06:33.893Z,5.81
2023-02-11T18:11:35.162Z,5.42
2023-02-11T18:16:38.846Z,5.51
2023-02-11T18:21:40.186Z,5.48
2023-02-11T18:26:41.706Z,5.44
2023-02-11T18:31:49.288Z,5.13
2023-02-11T18:36:50.631Z,5.26
2023-02-11T18:41:54.559Z,6.05
2023-02-11T18:46:55.824Z,5.85
2023-02-11T18:51:58.792Z,5.57
2023-02-11T18:57:00.102Z,5.53
2023-02-11T19:02:01.378Z,5.39
2023-02-11T19:07:04.258Z,5.39
2023-02-11T19:12:07.046Z,5.40
2023-02-11T19:17:08.502Z,5.42
2023-02-11T19:22:10.784Z,5.39
2023-02-11T19:27:12.126Z,5.48
2023-02-11T19:32:13.439Z,5.35
2023-02-11T19:37:14.842Z,5.25
2023-02-11T19:42:16.080Z,5.02
2023-02-11T19:47:17.839Z,5.22
2023-02-11T19:52:19.071Z,5.31
2023-02-11T19:57:20.284Z,5.22
2023-02-11T20:02:21.605Z,5.19
2023-02-11T20:07:22.855Z,5.12
2023-02-11T20:12:24.061Z,5.05
2023-02-11T20:17:25.323Z,5.02
2023-02-11T20:22:26.605Z,4.84
2023-02-11T20:27:32.212Z,4.74
2023-02-11T20:32:37.964Z,4.71
2023-02-11T20:37:40.655Z,4.68
2023-02-11T20:42:43.504Z,4.92
2023-02-11T20:47:44.773Z,5.11
2023-02-11T20:52:46.096Z,5.09
2023-02-11T20:57:47.365Z,5.11
2023-02-11T21:02:49.460Z,5.19
2023-02-11T21:07:50.760Z,5.41
2023-02-11T21:12:52.000Z,5.36
2023-02-11T21:17:53.232Z,5.13
2023-02-11T21:22:54.480Z,5.18
2023-02-11T21:27:55.696Z,5.33
2023-02-11T21:32:56.947Z,5.24
2023-02-11T21:37:58.157Z,5.36
2023-02-11T21:42:59.392Z,5.38
2023-02-11T21:48:00.627Z,5.61
2023-02-11T21:53:01.893Z,5.61
2023-02-11T21:58:03.138Z,5.78
2023-02-11T22:03:04.436Z,5.71
2023-02-11T22:08:05.664Z,5.98
2023-02-11T22:13:06.894Z,5.77
2023-02-11T22:18:08.231Z,6.06
2023-02-11T22:23:09.452Z,6.00
2023-02-11T22:28:10.697Z,6.01
2023-02-11T22:33:11.987Z,6.09
2023-02-11T22:38:13.214Z,5.95
2023-02-11T22:43:14.435Z,5.69
2023-02-11T22:48:15.766Z,5.68
2023-02-11T22:53:17.025Z,5.66
2023-02-11T22:58:18.858Z,5.82
2023-02-11T23:03:20.213Z,5.88
2023-02-11T23:08:21.430Z,5.98
2023-02-11T23:13:22.673Z,6.05
2023-02-11T23:18:23.885Z,5.84
2023-02-11T23:23:25.162Z,6.00
2023-02-11T23:28:27.594Z,6.02
2023-02-11T23:33:28.830Z,6.05
2023-02-11T23:38:30.106Z,6.03
2023-02-11T23:43:31.432Z,6.01
2023-02-11T23:48:32.835Z,5.59
2023-02-11T23:53:34.137Z,5.37
2023-02-11T23:58:35.699Z,5.80
